TOURFACTS.DK  
Stats and Facts from Tour de France.

Tour de France 2018 starts in 166 days
  Riders   Stages   Teams   Summits   Yearly  


 
Search by year

 2017 - St.21:
 14824 starters.
  5132 different riders.
  635 teams.
  2232 stages.
  454 restdays.
  439589.60 km.
  5653 abandonnees.


Top 3
GC
Christopher Froome86:20:55
Rigoberto Uran86:21:49
Romain Bardet86:23:15
Climb
Warren Barguil169 pt.
Primoz Roglic80 pt.
Thomas De Gendt64 pt.
Sprint
Michael Matthews359 pt.
André Greipel234 pt.
Edvald Boasson Hagen220 pt.
Youth
Simon Yates86:27:09
Louis Meintjes86:29:15
Emanuel Buchmann86:54:16
Facts from Tour de France 1938
  |   Stages.  |   Stage winners.  |   Days in yellow  |   Average speed.  |   Route.  |   Teams.  |   All riders.  |   Rookies.  |   Withdrawls.  |  

  |   GC.  |   Polka  |   Green  |   White  |   Summits. (In tour)  |   Summits. (Points)  |   Miscellaneous.  |  

Stage 3 on 07 - 07 - 1938
         Owning:    Jean Majerus    
Pick a stage:  1 2 3 4a 4b 4c 5 6a 6b 7 8 9 10a 10b 10c 11 12 13 14 15 16 17a 17b 18 19 20a 20b 20c 21
  Saint-BrieucNantes | Dist: 238.00 km.

Average speed for all riders in stage:  30,833 km./hr.
    Place:Name:Team:Time:Km/h:
NEDGerrit SchulteNLDHolland07:39:01  +  00:00:00=31,110 
BELÉloi MeulenbergBELBelgium07:39:06  +  00:00:05=31,104 
SUIPaul EgliCHESwitzerland07:39:10  +  00:00:09=31,100 
4 GERHeinz WenglerDEUGermany07:39:10  +  00:00:09=31,100 
5 NEDTheo MiddelkampNLDHolland07:39:10  +  00:00:09=31,100 
6 ITAGlauco ServadeiITAItaly07:39:10  +  00:00:09=31,100 
7 BELEdward VissersBELBelgium07:39:10  +  00:00:09=31,100 
8 ITASettimo SimoniniITAItaly07:39:10  +  00:00:09=31,100 
9 FRAEloi TassinFRABluets07:39:10  +  00:00:09=31,100 
10 FRASylvain MarcaillouFRAFrance07:39:10  +  00:00:09=31,100 
11 FRAMarcel LaurentFRAFrance07:39:10  +  00:00:09=31,100 
12 FRAAuguste MalletFRAFrance07:39:10  +  00:00:09=31,100 
13 FRAJean FréchautFRAFrance07:39:10  +  00:00:09=31,100 
14 FRAPierre GallienFRAFrance07:39:10  +  00:00:09=31,100 
15 FRAAntonin MagneFRAFrance07:39:10  +  00:00:09=31,100 
16 GEROtto WeckerlingDEUGermany07:39:10  +  00:00:09=31,100 
17 FRARaoul LesueurFRACadets07:39:10  +  00:00:09=31,100 
18 FRAGeorges NaisseFRAFrance07:39:10  +  00:00:09=31,100 
19 FRAVictor CossonFRAFrance07:39:10  +  00:00:09=31,100 
20 NEDJanus HellemonsNLDHolland07:39:10  +  00:00:09=31,100 
21 NEDAntoon Van SchendelNLDHolland07:39:10  +  00:00:09=31,100 
22 FRAMathias ClemensLUXLuxembourg07:39:10  +  00:00:09=31,100 
23 LUXJean MajerusLUXLuxembourg07:39:10  +  00:00:09=31,100 
24 SUIEdgar HehlenCHESwitzerland07:39:10  +  00:00:09=31,100 
25 LUXFrançois NeuensLUXLuxembourg07:39:10  +  00:00:09=31,100 
26 ESPJulián BerrenderoESPSpain07:39:10  +  00:00:09=31,100 
27 ESPMariano CañardoESPSpain07:39:10  +  00:00:09=31,100 
28 FRAAndré LeducqFRACadets07:39:10  +  00:00:09=31,100 
29 FRAGeorges SpeicherFRAFrance07:39:10  +  00:00:09=31,100 
30 FRAFabien GalateauFRACadets07:39:10  +  00:00:09=31,100 
31 FRARobert TanneveauFRACadets07:39:10  +  00:00:09=31,100 
32 FRARobert OubronFRACadets07:39:10  +  00:00:09=31,100 
33 FRAJules RossiITAItaly07:39:10  +  00:00:09=31,100 
34 FRACamille LeroyFRABluets07:39:10  +  00:00:09=31,100 
35 ITAPierre SpaperiFRABluets07:39:10  +  00:00:09=31,100 
36 ITAGino BartaliITAItaly07:39:10  +  00:00:09=31,100 
37 BELJules LowieBELBelgium07:39:10  +  00:00:09=31,100 
38 FRAJean-Marie GoasmatFRAFrance07:39:10  +  00:00:09=31,100 
39 BELFrançois NeuvilleBELBelgium07:39:10  +  00:00:09=31,100 
40 BELRene WalschotBELBelgium07:39:10  +  00:00:09=31,100 
41 ITAMario ViciniITAItaly07:39:10  +  00:00:09=31,100 
42 BELTheo PirmezBELBelgium07:39:10  +  00:00:09=31,100 
43 BELFélicien VervaeckeBELBelgium07:39:10  +  00:00:09=31,100 
44 FRAYvan MarieFRACadets07:39:10  +  00:00:09=31,100 
45 ITAOreste BernardoniFRABluets07:39:10  +  00:00:09=31,100 
46 GERFritz SchellerDEUGermany07:39:10  +  00:00:09=31,100 
47 FRAAlbert BourlonFRABluets07:39:10  +  00:00:09=31,100 
48 FRAJoseph GoutorbeFRABluets07:39:10  +  00:00:09=31,100 
49 BELAlbertin DisseauxBELBelgium07:39:10  +  00:00:09=31,100 
50 ITADante GianelloFRABluets07:39:43  +  00:00:42=31,063 
51 FRARaymond PassatFRACadets07:39:58  +  00:00:57=31,046 
52 ITALuigi IntrozziITAItaly07:40:17  +  00:01:16=31,024 
53 BELEmile Masson jr.BELBelgium07:40:25  +  00:01:24=31,015 
54 ITAAldo BiniITAItaly07:41:59  +  00:02:58=30,910 
55 SUIRaymond LouviotFRACadets07:41:59  +  00:02:58=30,910 
56 BELMarcel KintBELBelgium07:42:22  +  00:03:21=30,885 
57 ESPEmiliano AlvarezESPSpain07:42:22  +  00:03:21=30,885 
58 SUIBruno CariniFRACadets07:42:22  +  00:03:21=30,885 
59 GERWilli OberbeckDEUGermany07:42:22  +  00:03:21=30,885 
60 BELSylvère MaesBELBelgium07:42:22  +  00:03:21=30,885 
61 FRASauveur DucazeauxFRACadets07:44:46  +  00:05:45=30,725 
62 ITAVasco BergamaschiITAItaly07:44:46  +  00:05:45=30,725 
63 ITAEnrico MolloITAItaly07:45:20  +  00:06:19=30,688 
64 ESPRafael RamosESPSpain07:45:20  +  00:06:19=30,688 
65 FRAAndre LeforgeFRABluets07:45:20  +  00:06:19=30,688 
66 FRAPierre ClemensLUXLuxembourg07:45:20  +  00:06:19=30,688 
67 FRAGaston GrimbertFRABluets07:45:20  +  00:06:19=30,688 
68 ITAGiordano CotturITAItaly07:45:20  +  00:06:19=30,688 
69 FRALucien Le GuevelFRABluets07:45:20  +  00:06:19=30,688 
70 NEDJef DominicusNLDHolland07:48:15  +  00:09:14=30,497 
71 SUIBruno BesanaCHESwitzerland07:48:15  +  00:09:14=30,497 
72 GERPaul SeidelDEUGermany07:48:15  +  00:09:14=30,497 
73 GERPaul LanghoffDEUGermany07:48:15  +  00:09:14=30,497 
74 GERHerbert HauswaldDEUGermany07:48:15  +  00:09:14=30,497 
75 GERHermann SchildDEUGermany07:48:15  +  00:09:14=30,497 
76 SUIAlbert KnuttiCHESwitzerland07:48:15  +  00:09:14=30,497 
77 GERKarl HeideDEUGermany07:48:15  +  00:09:14=30,497 
78 BELConstant LauwersBELBelgium07:48:55  +  00:09:54=30,453 
79 ESPJacques AlzineESPSpain07:50:12  +  00:11:11=30,370 
80 ITANello TroggiITAItaly07:52:55  +  00:13:54=30,196 
81 FRAPierre JaminetFRAFrance07:52:55  +  00:13:54=30,196 
82 BELRené PédroliCHESwitzerland07:52:55  +  00:13:54=30,196 
83 LUXArsène MerschLUXLuxembourg07:52:55  +  00:13:54=30,196 
84 LUXChristophe DidierLUXLuxembourg07:52:55  +  00:13:54=30,196 
85 FRAJean FontenayFRACadets07:52:55  +  00:13:54=30,196 
86 ITAGiuseppe MartanoITAItaly07:52:55  +  00:13:54=30,196 
87 FRALucien LamureFRABluets07:55:57  +  00:16:56=30,003 
88 NEDPiet Van NekNLDHolland07:55:57  +  00:16:56=30,003 
89 GERJosef ArentsDEUGermany07:55:57  +  00:16:56=30,003 
90 SUITheo PerretCHESwitzerland08:00:00  +  00:20:59=29,750 
91 GERReinhold WendelDEUGermany08:01:01  +  00:22:00=29,687 


Todays birthdays.

1865  Josef Fischer
1889  René Vandenhove
1902  Jean Garcia
1908  Rudolph Risch
1930  Jan Nolten
1931  Francisco Moreno
1936  Alfredo Sabbadin
1939  Francois Hamon
1947  Cyrille Guimard
1949  Joel Hauvieux
1952  Abelardo Rios
1960  Thomas Barth
1960  Falk Boden
1961  Pedro Soler
1962  Pablo Hernandez
1976  Lilian Jégou
1976  Pablo Lastras




Visits: